sensor_id;sensor_type;location;lat;lon;timestamp;P1;durP1;ratioP1;P2;durP2;ratioP2
60665;SDS011;59128;44.642;21.188;2024-03-29T00:00:34;8.18;;;4.30;;
60665;SDS011;59128;44.642;21.188;2024-03-29T00:03:00;8.05;;;4.82;;
60665;SDS011;59128;44.642;21.188;2024-03-29T00:05:26;7.25;;;4.55;;
60665;SDS011;59128;44.642;21.188;2024-03-29T00:07:53;6.60;;;3.92;;
60665;SDS011;59128;44.642;21.188;2024-03-29T00:10:19;7.05;;;4.32;;
60665;SDS011;59128;44.642;21.188;2024-03-29T00:12:45;7.22;;;4.40;;
60665;SDS011;59128;44.642;21.188;2024-03-29T00:15:11;7.47;;;4.53;;
60665;SDS011;59128;44.642;21.188;2024-03-29T00:17:37;8.07;;;4.77;;
60665;SDS011;59128;44.642;21.188;2024-03-29T00:20:03;9.48;;;4.93;;
60665;SDS011;59128;44.642;21.188;2024-03-29T00:22:31;9.15;;;5.10;;
60665;SDS011;59128;44.642;21.188;2024-03-29T00:24:57;8.02;;;4.68;;
60665;SDS011;59128;44.642;21.188;2024-03-29T00:27:23;8.05;;;4.20;;
60665;SDS011;59128;44.642;21.188;2024-03-29T00:29:51;6.90;;;4.13;;
60665;SDS011;59128;44.642;21.188;2024-03-29T00:32:18;7.90;;;4.77;;
60665;SDS011;59128;44.642;21.188;2024-03-29T00:34:44;6.97;;;4.28;;
60665;SDS011;59128;44.642;21.188;2024-03-29T00:37:11;7.43;;;4.10;;
60665;SDS011;59128;44.642;21.188;2024-03-29T00:39:37;6.75;;;4.00;;
60665;SDS011;59128;44.642;21.188;2024-03-29T00:42:03;9.88;;;4.45;;
60665;SDS011;59128;44.642;21.188;2024-03-29T00:44:33;8.00;;;4.50;;
60665;SDS011;59128;44.642;21.188;2024-03-29T00:47:00;7.70;;;3.30;;
60665;SDS011;59128;44.642;21.188;2024-03-29T00:49:26;6.97;;;4.50;;
60665;SDS011;59128;44.642;21.188;2024-03-29T00:51:52;5.47;;;3.40;;
60665;SDS011;59128;44.642;21.188;2024-03-29T00:54:18;4.37;;;2.83;;
60665;SDS011;59128;44.642;21.188;2024-03-29T00:56:44;4.45;;;2.55;;
60665;SDS011;59128;44.642;21.188;2024-03-29T00:59:10;4.95;;;3.30;;
60665;SDS011;59128;44.642;21.188;2024-03-29T01:01:36;5.95;;;3.17;;
60665;SDS011;59128;44.642;21.188;2024-03-29T01:04:03;6.40;;;3.20;;
60665;SDS011;59128;44.642;21.188;2024-03-29T01:06:29;4.93;;;2.80;;
60665;SDS011;59128;44.642;21.188;2024-03-29T01:08:55;6.07;;;2.73;;
60665;SDS011;59128;44.642;21.188;2024-03-29T01:11:21;6.20;;;2.85;;
60665;SDS011;59128;44.642;21.188;2024-03-29T01:13:47;6.43;;;3.50;;
60665;SDS011;59128;44.642;21.188;2024-03-29T01:16:14;5.80;;;3.40;;
60665;SDS011;59128;44.642;21.188;2024-03-29T01:18:40;6.82;;;3.88;;
60665;SDS011;59128;44.642;21.188;2024-03-29T01:21:08;7.03;;;4.00;;
60665;SDS011;59128;44.642;21.188;2024-03-29T01:23:34;7.70;;;4.05;;
60665;SDS011;59128;44.642;21.188;2024-03-29T01:26:02;6.85;;;4.47;;
60665;SDS011;59128;44.642;21.188;2024-03-29T01:28:29;8.60;;;4.43;;
60665;SDS011;59128;44.642;21.188;2024-03-29T01:30:55;9.17;;;5.90;;
60665;SDS011;59128;44.642;21.188;2024-03-29T01:33:23;12.25;;;6.97;;
60665;SDS011;59128;44.642;21.188;2024-03-29T01:35:49;28.17;;;13.60;;
60665;SDS011;59128;44.642;21.188;2024-03-29T01:38:16;26.73;;;12.63;;
60665;SDS011;59128;44.642;21.188;2024-03-29T01:40:42;17.55;;;9.07;;
60665;SDS011;59128;44.642;21.188;2024-03-29T01:43:08;7.32;;;4.38;;
60665;SDS011;59128;44.642;21.188;2024-03-29T01:45:41;7.75;;;4.78;;
60665;SDS011;59128;44.642;21.188;2024-03-29T01:48:08;8.87;;;4.90;;
60665;SDS011;59128;44.642;21.188;2024-03-29T01:50:35;9.20;;;5.10;;
60665;SDS011;59128;44.642;21.188;2024-03-29T01:53:02;6.97;;;4.07;;
60665;SDS011;59128;44.642;21.188;2024-03-29T01:55:29;7.13;;;3.90;;
60665;SDS011;59128;44.642;21.188;2024-03-29T01:57:55;5.82;;;3.20;;
60665;SDS011;59128;44.642;21.188;2024-03-29T02:00:22;4.50;;;2.70;;
60665;SDS011;59128;44.642;21.188;2024-03-29T02:02:48;6.33;;;2.97;;
60665;SDS011;59128;44.642;21.188;2024-03-29T02:05:15;4.45;;;2.70;;
60665;SDS011;59128;44.642;21.188;2024-03-29T02:07:41;5.05;;;2.80;;
60665;SDS011;59128;44.642;21.188;2024-03-29T02:10:09;5.18;;;2.97;;
60665;SDS011;59128;44.642;21.188;2024-03-29T02:12:37;6.18;;;3.05;;
60665;SDS011;59128;44.642;21.188;2024-03-29T02:15:04;5.03;;;2.87;;
60665;SDS011;59128;44.642;21.188;2024-03-29T02:17:31;7.07;;;4.45;;
60665;SDS011;59128;44.642;21.188;2024-03-29T02:19:57;5.57;;;3.13;;
60665;SDS011;59128;44.642;21.188;2024-03-29T02:22:24;5.33;;;3.23;;
60665;SDS011;59128;44.642;21.188;2024-03-29T02:24:50;5.25;;;3.00;;
60665;SDS011;59128;44.642;21.188;2024-03-29T02:27:17;6.70;;;3.10;;
60665;SDS011;59128;44.642;21.188;2024-03-29T02:29:43;6.47;;;3.10;;
60665;SDS011;59128;44.642;21.188;2024-03-29T02:32:09;8.75;;;3.80;;
60665;SDS011;59128;44.642;21.188;2024-03-29T02:34:35;6.53;;;3.43;;
60665;SDS011;59128;44.642;21.188;2024-03-29T02:37:01;6.97;;;4.03;;
60665;SDS011;59128;44.642;21.188;2024-03-29T02:39:28;9.30;;;5.30;;
60665;SDS011;59128;44.642;21.188;2024-03-29T02:41:54;7.37;;;4.20;;
60665;SDS011;59128;44.642;21.188;2024-03-29T02:44:20;8.02;;;4.28;;
60665;SDS011;59128;44.642;21.188;2024-03-29T02:46:46;10.60;;;6.65;;
60665;SDS011;59128;44.642;21.188;2024-03-29T02:49:12;4.47;;;2.92;;
60665;SDS011;59128;44.642;21.188;2024-03-29T02:51:38;6.60;;;3.03;;
60665;SDS011;59128;44.642;21.188;2024-03-29T02:54:04;4.30;;;2.50;;
60665;SDS011;59128;44.642;21.188;2024-03-29T02:56:30;6.53;;;2.33;;
60665;SDS011;59128;44.642;21.188;2024-03-29T02:58:56;3.75;;;2.33;;
60665;SDS011;59128;44.642;21.188;2024-03-29T03:01:22;5.28;;;2.45;;
60665;SDS011;59128;44.642;21.188;2024-03-29T03:03:48;4.90;;;2.30;;
60665;SDS011;59128;44.642;21.188;2024-03-29T03:06:14;3.67;;;2.00;;
60665;SDS011;59128;44.642;21.188;2024-03-29T03:08:40;4.10;;;2.10;;
60665;SDS011;59128;44.642;21.188;2024-03-29T03:11:25;4.60;;;2.38;;
60665;SDS011;59128;44.642;21.188;2024-03-29T03:13:51;5.13;;;2.30;;
60665;SDS011;59128;44.642;21.188;2024-03-29T03:16:17;3.92;;;2.00;;
60665;SDS011;59128;44.642;21.188;2024-03-29T03:18:43;4.80;;;2.08;;
60665;SDS011;59128;44.642;21.188;2024-03-29T03:21:09;5.07;;;2.10;;
60665;SDS011;59128;44.642;21.188;2024-03-29T03:23:35;5.00;;;1.90;;
60665;SDS011;59128;44.642;21.188;2024-03-29T03:26:02;4.05;;;2.00;;
60665;SDS011;59128;44.642;21.188;2024-03-29T03:28:29;3.50;;;1.52;;
60665;SDS011;59128;44.642;21.188;2024-03-29T03:30:55;3.70;;;1.73;;
60665;SDS011;59128;44.642;21.188;2024-03-29T03:33:21;3.90;;;1.67;;
60665;SDS011;59128;44.642;21.188;2024-03-29T03:35:47;3.47;;;1.60;;
60665;SDS011;59128;44.642;21.188;2024-03-29T03:38:13;5.57;;;1.70;;
60665;SDS011;59128;44.642;21.188;2024-03-29T03:40:40;4.75;;;2.40;;
60665;SDS011;59128;44.642;21.188;2024-03-29T03:43:06;4.20;;;2.10;;
60665;SDS011;59128;44.642;21.188;2024-03-29T03:45:36;4.43;;;2.17;;
60665;SDS011;59128;44.642;21.188;2024-03-29T03:48:09;3.67;;;1.92;;
60665;SDS011;59128;44.642;21.188;2024-03-29T03:50:36;5.07;;;2.40;;
60665;SDS011;59128;44.642;21.188;2024-03-29T03:53:02;6.00;;;3.60;;
60665;SDS011;59128;44.642;21.188;2024-03-29T03:55:28;7.78;;;5.20;;
60665;SDS011;59128;44.642;21.188;2024-03-29T03:57:54;5.03;;;2.85;;
60665;SDS011;59128;44.642;21.188;2024-03-29T04:00:21;5.05;;;2.80;;
60665;SDS011;59128;44.642;21.188;2024-03-29T04:02:51;6.75;;;2.53;;
60665;SDS011;59128;44.642;21.188;2024-03-29T04:05:18;5.82;;;2.70;;
60665;SDS011;59128;44.642;21.188;2024-03-29T04:07:44;5.13;;;3.05;;
60665;SDS011;59128;44.642;21.188;2024-03-29T04:10:10;4.72;;;3.10;;
60665;SDS011;59128;44.642;21.188;2024-03-29T04:12:37;4.65;;;2.60;;
60665;SDS011;59128;44.642;21.188;2024-03-29T04:15:03;5.78;;;2.50;;
60665;SDS011;59128;44.642;21.188;2024-03-29T04:17:30;4.57;;;2.35;;
60665;SDS011;59128;44.642;21.188;2024-03-29T04:19:56;6.03;;;3.25;;
60665;SDS011;59128;44.642;21.188;2024-03-29T04:22:22;4.88;;;3.15;;
60665;SDS011;59128;44.642;21.188;2024-03-29T04:24:49;5.40;;;3.38;;
60665;SDS011;59128;44.642;21.188;2024-03-29T04:27:15;7.20;;;4.32;;
60665;SDS011;59128;44.642;21.188;2024-03-29T04:29:41;6.90;;;4.00;;
60665;SDS011;59128;44.642;21.188;2024-03-29T04:32:07;7.25;;;4.40;;
60665;SDS011;59128;44.642;21.188;2024-03-29T04:34:33;7.30;;;4.10;;
60665;SDS011;59128;44.642;21.188;2024-03-29T04:36:59;8.32;;;3.97;;
60665;SDS011;59128;44.642;21.188;2024-03-29T04:39:25;6.88;;;4.18;;
60665;SDS011;59128;44.642;21.188;2024-03-29T04:41:52;7.68;;;4.43;;
60665;SDS011;59128;44.642;21.188;2024-03-29T04:44:24;8.65;;;4.53;;
60665;SDS011;59128;44.642;21.188;2024-03-29T04:46:50;27.45;;;24.60;;
60665;SDS011;59128;44.642;21.188;2024-03-29T04:49:22;10.13;;;7.00;;
60665;SDS011;59128;44.642;21.188;2024-03-29T04:51:55;8.15;;;3.75;;
60665;SDS011;59128;44.642;21.188;2024-03-29T04:54:22;6.65;;;3.80;;
60665;SDS011;59128;44.642;21.188;2024-03-29T04:56:48;10.53;;;9.47;;
60665;SDS011;59128;44.642;21.188;2024-03-29T04:59:14;8.77;;;3.83;;
60665;SDS011;59128;44.642;21.188;2024-03-29T05:01:42;4.87;;;1.90;;
60665;SDS011;59128;44.642;21.188;2024-03-29T05:04:15;3.77;;;1.40;;
60665;SDS011;59128;44.642;21.188;2024-03-29T05:06:43;2.65;;;1.30;;
60665;SDS011;59128;44.642;21.188;2024-03-29T05:09:10;4.85;;;2.17;;
60665;SDS011;59128;44.642;21.188;2024-03-29T05:11:39;4.28;;;1.50;;
60665;SDS011;59128;44.642;21.188;2024-03-29T05:14:05;2.83;;;1.15;;
60665;SDS011;59128;44.642;21.188;2024-03-29T05:16:31;2.10;;;1.10;;
60665;SDS011;59128;44.642;21.188;2024-03-29T05:18:57;3.50;;;1.42;;
60665;SDS011;59128;44.642;21.188;2024-03-29T05:21:23;3.22;;;1.10;;
60665;SDS011;59128;44.642;21.188;2024-03-29T05:23:49;4.63;;;1.30;;
60665;SDS011;59128;44.642;21.188;2024-03-29T05:26:15;4.45;;;2.20;;
60665;SDS011;59128;44.642;21.188;2024-03-29T05:28:41;5.38;;;3.42;;
60665;SDS011;59128;44.642;21.188;2024-03-29T05:31:11;6.25;;;3.92;;
60665;SDS011;59128;44.642;21.188;2024-03-29T05:33:41;5.05;;;2.40;;
60665;SDS011;59128;44.642;21.188;2024-03-29T05:36:07;4.07;;;2.67;;
60665;SDS011;59128;44.642;21.188;2024-03-29T05:38:36;4.35;;;2.42;;
60665;SDS011;59128;44.642;21.188;2024-03-29T05:41:02;5.15;;;3.00;;
60665;SDS011;59128;44.642;21.188;2024-03-29T05:43:28;12.18;;;7.00;;
60665;SDS011;59128;44.642;21.188;2024-03-29T05:45:54;12.93;;;6.72;;
60665;SDS011;59128;44.642;21.188;2024-03-29T05:48:20;10.75;;;5.68;;
60665;SDS011;59128;44.642;21.188;2024-03-29T05:50:46;6.03;;;3.60;;
60665;SDS011;59128;44.642;21.188;2024-03-29T05:53:12;3.38;;;1.88;;
60665;SDS011;59128;44.642;21.188;2024-03-29T05:55:38;3.80;;;2.00;;
60665;SDS011;59128;44.642;21.188;2024-03-29T05:58:04;4.90;;;1.90;;
60665;SDS011;59128;44.642;21.188;2024-03-29T06:00:33;6.70;;;3.17;;
60665;SDS011;59128;44.642;21.188;2024-03-29T06:03:00;12.32;;;8.82;;
60665;SDS011;59128;44.642;21.188;2024-03-29T06:05:29;13.02;;;9.88;;
60665;SDS011;59128;44.642;21.188;2024-03-29T06:07:55;8.90;;;5.88;;
60665;SDS011;59128;44.642;21.188;2024-03-29T06:10:21;10.68;;;6.22;;
60665;SDS011;59128;44.642;21.188;2024-03-29T06:12:47;7.43;;;4.50;;
60665;SDS011;59128;44.642;21.188;2024-03-29T06:15:13;5.63;;;3.47;;
60665;SDS011;59128;44.642;21.188;2024-03-29T06:17:57;10.45;;;6.57;;
60665;SDS011;59128;44.642;21.188;2024-03-29T06:20:24;5.35;;;2.28;;
60665;SDS011;59128;44.642;21.188;2024-03-29T06:22:50;3.78;;;1.50;;
60665;SDS011;59128;44.642;21.188;2024-03-29T06:25:16;10.05;;;6.28;;
60665;SDS011;59128;44.642;21.188;2024-03-29T06:27:42;29.92;;;17.08;;
60665;SDS011;59128;44.642;21.188;2024-03-29T06:30:12;15.53;;;8.90;;
60665;SDS011;59128;44.642;21.188;2024-03-29T06:32:38;18.88;;;11.65;;
60665;SDS011;59128;44.642;21.188;2024-03-29T06:35:05;12.10;;;6.32;;
60665;SDS011;59128;44.642;21.188;2024-03-29T06:37:31;15.88;;;10.32;;
60665;SDS011;59128;44.642;21.188;2024-03-29T06:39:57;10.77;;;6.57;;
60665;SDS011;59128;44.642;21.188;2024-03-29T06:42:23;10.80;;;7.00;;
60665;SDS011;59128;44.642;21.188;2024-03-29T06:44:49;9.30;;;4.60;;
60665;SDS011;59128;44.642;21.188;2024-03-29T06:47:17;11.20;;;6.13;;
60665;SDS011;59128;44.642;21.188;2024-03-29T06:49:43;8.38;;;4.60;;
60665;SDS011;59128;44.642;21.188;2024-03-29T06:52:09;16.77;;;7.00;;
60665;SDS011;59128;44.642;21.188;2024-03-29T06:54:35;8.43;;;5.17;;
60665;SDS011;59128;44.642;21.188;2024-03-29T06:57:01;6.20;;;3.85;;
60665;SDS011;59128;44.642;21.188;2024-03-29T06:59:28;6.88;;;4.68;;
60665;SDS011;59128;44.642;21.188;2024-03-29T14:19:11;5.30;;;1.50;;
60665;SDS011;59128;44.642;21.188;2024-03-29T14:21:39;4.60;;;1.48;;
60665;SDS011;59128;44.642;21.188;2024-03-29T14:24:05;7.32;;;2.05;;
60665;SDS011;59128;44.642;21.188;2024-03-29T14:26:31;5.28;;;1.50;;
60665;SDS011;59128;44.642;21.188;2024-03-29T14:28:57;4.18;;;1.30;;
60665;SDS011;59128;44.642;21.188;2024-03-29T14:31:23;6.13;;;2.00;;
60665;SDS011;59128;44.642;21.188;2024-03-29T14:33:49;3.80;;;1.35;;
60665;SDS011;59128;44.642;21.188;2024-03-29T14:36:15;5.25;;;1.30;;
60665;SDS011;59128;44.642;21.188;2024-03-29T14:38:43;4.82;;;1.40;;
60665;SDS011;59128;44.642;21.188;2024-03-29T14:41:09;3.72;;;1.40;;
60665;SDS011;59128;44.642;21.188;2024-03-29T14:43:36;3.88;;;1.50;;
60665;SDS011;59128;44.642;21.188;2024-03-29T14:46:02;6.00;;;1.58;;
60665;SDS011;59128;44.642;21.188;2024-03-29T14:48:28;4.30;;;1.98;;
60665;SDS011;59128;44.642;21.188;2024-03-29T14:50:54;4.28;;;1.60;;
60665;SDS011;59128;44.642;21.188;2024-03-29T14:53:23;6.07;;;1.70;;
60665;SDS011;59128;44.642;21.188;2024-03-29T14:55:49;6.22;;;1.60;;
60665;SDS011;59128;44.642;21.188;2024-03-29T14:58:15;5.82;;;1.65;;
60665;SDS011;59128;44.642;21.188;2024-03-29T15:00:41;3.67;;;1.40;;
60665;SDS011;59128;44.642;21.188;2024-03-29T15:03:10;3.45;;;1.25;;
60665;SDS011;59128;44.642;21.188;2024-03-29T15:05:36;5.38;;;1.58;;
60665;SDS011;59128;44.642;21.188;2024-03-29T15:08:02;4.32;;;1.40;;
60665;SDS011;59128;44.642;21.188;2024-03-29T15:10:28;3.95;;;1.55;;
60665;SDS011;59128;44.642;21.188;2024-03-29T15:12:54;3.78;;;1.40;;
60665;SDS011;59128;44.642;21.188;2024-03-29T15:15:20;3.88;;;1.30;;
60665;SDS011;59128;44.642;21.188;2024-03-29T15:17:46;4.80;;;1.80;;
60665;SDS011;59128;44.642;21.188;2024-03-29T15:20:12;8.07;;;4.70;;
60665;SDS011;59128;44.642;21.188;2024-03-29T15:22:40;7.97;;;4.72;;
60665;SDS011;59128;44.642;21.188;2024-03-29T15:25:09;6.72;;;2.53;;
60665;SDS011;59128;44.642;21.188;2024-03-29T15:27:35;7.53;;;3.78;;
60665;SDS011;59128;44.642;21.188;2024-03-29T15:30:20;10.85;;;7.45;;
60665;SDS011;59128;44.642;21.188;2024-03-29T15:32:46;6.43;;;3.10;;
60665;SDS011;59128;44.642;21.188;2024-03-29T15:35:12;10.45;;;4.97;;
60665;SDS011;59128;44.642;21.188;2024-03-29T15:37:38;4.03;;;2.17;;
60665;SDS011;59128;44.642;21.188;2024-03-29T15:40:04;5.25;;;1.83;;
60665;SDS011;59128;44.642;21.188;2024-03-29T15:42:32;6.38;;;2.20;;
60665;SDS011;59128;44.642;21.188;2024-03-29T15:45:01;3.67;;;1.33;;
60665;SDS011;59128;44.642;21.188;2024-03-29T15:47:27;4.22;;;1.60;;
60665;SDS011;59128;44.642;21.188;2024-03-29T15:49:54;7.78;;;1.65;;
60665;SDS011;59128;44.642;21.188;2024-03-29T15:52:20;5.47;;;2.08;;
60665;SDS011;59128;44.642;21.188;2024-03-29T15:54:47;9.52;;;3.25;;
60665;SDS011;59128;44.642;21.188;2024-03-29T15:57:13;15.95;;;8.18;;
60665;SDS011;59128;44.642;21.188;2024-03-29T15:59:39;7.85;;;3.20;;
60665;SDS011;59128;44.642;21.188;2024-03-29T16:02:05;6.72;;;2.40;;
60665;SDS011;59128;44.642;21.188;2024-03-29T16:04:32;10.40;;;3.22;;
60665;SDS011;59128;44.642;21.188;2024-03-29T16:06:58;14.07;;;6.55;;
60665;SDS011;59128;44.642;21.188;2024-03-29T16:09:24;28.05;;;16.40;;
60665;SDS011;59128;44.642;21.188;2024-03-29T16:11:51;22.30;;;12.32;;
60665;SDS011;59128;44.642;21.188;2024-03-29T16:14:17;14.63;;;7.53;;
60665;SDS011;59128;44.642;21.188;2024-03-29T16:16:45;9.30;;;2.88;;
60665;SDS011;59128;44.642;21.188;2024-03-29T16:19:12;7.38;;;2.40;;
60665;SDS011;59128;44.642;21.188;2024-03-29T16:21:38;7.97;;;3.83;;
60665;SDS011;59128;44.642;21.188;2024-03-29T16:24:04;13.83;;;9.03;;
60665;SDS011;59128;44.642;21.188;2024-03-29T16:26:30;9.07;;;6.00;;
60665;SDS011;59128;44.642;21.188;2024-03-29T16:28:56;6.85;;;2.53;;
60665;SDS011;59128;44.642;21.188;2024-03-29T16:31:27;7.55;;;2.40;;
60665;SDS011;59128;44.642;21.188;2024-03-29T16:33:53;5.90;;;2.58;;
60665;SDS011;59128;44.642;21.188;2024-03-29T16:36:19;6.82;;;2.90;;
60665;SDS011;59128;44.642;21.188;2024-03-29T16:38:46;8.68;;;4.30;;
60665;SDS011;59128;44.642;21.188;2024-03-29T16:41:12;11.35;;;6.07;;
60665;SDS011;59128;44.642;21.188;2024-03-29T16:43:38;10.35;;;5.70;;
60665;SDS011;59128;44.642;21.188;2024-03-29T16:46:04;11.90;;;5.80;;
60665;SDS011;59128;44.642;21.188;2024-03-29T16:48:30;11.15;;;6.07;;
60665;SDS011;59128;44.642;21.188;2024-03-29T16:50:57;11.77;;;5.78;;
60665;SDS011;59128;44.642;21.188;2024-03-29T16:53:23;10.35;;;4.70;;
60665;SDS011;59128;44.642;21.188;2024-03-29T16:55:50;8.25;;;3.92;;
60665;SDS011;59128;44.642;21.188;2024-03-29T16:58:16;8.85;;;3.70;;
60665;SDS011;59128;44.642;21.188;2024-03-29T17:00:42;8.15;;;3.63;;
60665;SDS011;59128;44.642;21.188;2024-03-29T17:03:08;10.20;;;3.60;;
60665;SDS011;59128;44.642;21.188;2024-03-29T17:05:34;7.68;;;3.40;;
60665;SDS011;59128;44.642;21.188;2024-03-29T17:08:00;9.43;;;3.08;;
60665;SDS011;59128;44.642;21.188;2024-03-29T17:10:26;5.77;;;2.67;;
60665;SDS011;59128;44.642;21.188;2024-03-29T17:12:52;7.80;;;3.10;;
60665;SDS011;59128;44.642;21.188;2024-03-29T17:15:19;7.00;;;3.07;;
60665;SDS011;59128;44.642;21.188;2024-03-29T17:17:45;8.40;;;3.17;;
60665;SDS011;59128;44.642;21.188;2024-03-29T17:20:11;7.35;;;2.33;;
60665;SDS011;59128;44.642;21.188;2024-03-29T17:22:37;6.15;;;2.47;;
60665;SDS011;59128;44.642;21.188;2024-03-29T17:25:04;7.97;;;3.08;;
60665;SDS011;59128;44.642;21.188;2024-03-29T17:27:34;9.82;;;2.83;;
60665;SDS011;59128;44.642;21.188;2024-03-29T17:30:01;9.75;;;4.40;;
60665;SDS011;59128;44.642;21.188;2024-03-29T17:32:27;11.23;;;3.87;;
60665;SDS011;59128;44.642;21.188;2024-03-29T17:34:53;9.13;;;4.10;;
60665;SDS011;59128;44.642;21.188;2024-03-29T17:37:19;9.98;;;3.95;;
60665;SDS011;59128;44.642;21.188;2024-03-29T17:39:46;7.53;;;3.45;;
60665;SDS011;59128;44.642;21.188;2024-03-29T17:42:12;8.73;;;4.68;;
60665;SDS011;59128;44.642;21.188;2024-03-29T17:44:38;6.60;;;3.83;;
60665;SDS011;59128;44.642;21.188;2024-03-29T17:47:05;11.80;;;5.53;;
60665;SDS011;59128;44.642;21.188;2024-03-29T17:49:32;17.35;;;11.30;;
60665;SDS011;59128;44.642;21.188;2024-03-29T17:51:58;46.35;;;34.30;;
60665;SDS011;59128;44.642;21.188;2024-03-29T17:54:25;55.72;;;46.20;;
60665;SDS011;59128;44.642;21.188;2024-03-29T17:56:51;47.22;;;42.10;;
60665;SDS011;59128;44.642;21.188;2024-03-29T17:59:17;26.02;;;22.60;;
60665;SDS011;59128;44.642;21.188;2024-03-29T18:01:43;11.05;;;7.13;;
60665;SDS011;59128;44.642;21.188;2024-03-29T18:04:09;9.90;;;5.57;;
60665;SDS011;59128;44.642;21.188;2024-03-29T18:06:36;13.63;;;8.23;;
60665;SDS011;59128;44.642;21.188;2024-03-29T18:09:03;25.27;;;13.73;;
60665;SDS011;59128;44.642;21.188;2024-03-29T18:11:30;17.50;;;9.23;;
60665;SDS011;59128;44.642;21.188;2024-03-29T18:13:56;19.50;;;11.85;;
60665;SDS011;59128;44.642;21.188;2024-03-29T18:16:22;18.40;;;10.77;;
60665;SDS011;59128;44.642;21.188;2024-03-29T18:18:48;10.50;;;5.22;;
60665;SDS011;59128;44.642;21.188;2024-03-29T18:21:15;26.67;;;16.00;;
60665;SDS011;59128;44.642;21.188;2024-03-29T18:23:41;11.65;;;6.45;;
60665;SDS011;59128;44.642;21.188;2024-03-29T18:26:07;22.65;;;14.55;;
60665;SDS011;59128;44.642;21.188;2024-03-29T18:28:33;22.17;;;13.18;;
60665;SDS011;59128;44.642;21.188;2024-03-29T18:30:59;20.85;;;13.48;;
60665;SDS011;59128;44.642;21.188;2024-03-29T18:33:27;17.73;;;11.38;;
60665;SDS011;59128;44.642;21.188;2024-03-29T18:35:53;19.05;;;12.50;;
60665;SDS011;59128;44.642;21.188;2024-03-29T18:38:25;16.65;;;10.57;;
60665;SDS011;59128;44.642;21.188;2024-03-29T18:40:56;16.08;;;10.70;;
60665;SDS011;59128;44.642;21.188;2024-03-29T18:43:22;17.55;;;9.85;;
60665;SDS011;59128;44.642;21.188;2024-03-29T18:45:48;12.48;;;7.85;;
60665;SDS011;59128;44.642;21.188;2024-03-29T18:48:14;13.65;;;6.90;;
60665;SDS011;59128;44.642;21.188;2024-03-29T18:50:40;13.00;;;7.53;;
60665;SDS011;59128;44.642;21.188;2024-03-29T18:53:06;11.97;;;7.53;;
60665;SDS011;59128;44.642;21.188;2024-03-29T18:55:32;16.30;;;9.60;;
60665;SDS011;59128;44.642;21.188;2024-03-29T18:57:58;14.18;;;8.23;;
60665;SDS011;59128;44.642;21.188;2024-03-29T19:00:24;13.43;;;7.82;;
60665;SDS011;59128;44.642;21.188;2024-03-29T19:02:51;13.85;;;8.25;;
60665;SDS011;59128;44.642;21.188;2024-03-29T19:05:17;14.75;;;8.85;;
60665;SDS011;59128;44.642;21.188;2024-03-29T19:07:43;19.15;;;8.15;;
60665;SDS011;59128;44.642;21.188;2024-03-29T19:10:09;11.57;;;6.72;;
60665;SDS011;59128;44.642;21.188;2024-03-29T19:12:35;11.33;;;6.93;;
60665;SDS011;59128;44.642;21.188;2024-03-29T19:15:01;17.00;;;8.50;;
60665;SDS011;59128;44.642;21.188;2024-03-29T19:17:30;19.48;;;10.23;;
60665;SDS011;59128;44.642;21.188;2024-03-29T19:19:56;19.50;;;9.98;;
60665;SDS011;59128;44.642;21.188;2024-03-29T19:22:23;19.77;;;10.88;;
60665;SDS011;59128;44.642;21.188;2024-03-29T19:24:49;12.30;;;7.40;;
60665;SDS011;59128;44.642;21.188;2024-03-29T19:27:17;27.85;;;15.80;;
60665;SDS011;59128;44.642;21.188;2024-03-29T19:29:45;18.83;;;10.95;;
60665;SDS011;59128;44.642;21.188;2024-03-29T19:32:14;13.57;;;8.07;;
60665;SDS011;59128;44.642;21.188;2024-03-29T19:34:40;36.20;;;21.77;;
60665;SDS011;59128;44.642;21.188;2024-03-29T19:37:06;16.67;;;10.02;;
60665;SDS011;59128;44.642;21.188;2024-03-29T19:39:32;7.78;;;4.38;;
60665;SDS011;59128;44.642;21.188;2024-03-29T19:41:58;10.85;;;5.68;;
60665;SDS011;59128;44.642;21.188;2024-03-29T19:44:24;8.50;;;4.35;;
60665;SDS011;59128;44.642;21.188;2024-03-29T19:46:50;8.73;;;5.32;;
60665;SDS011;59128;44.642;21.188;2024-03-29T19:49:20;13.75;;;7.63;;
60665;SDS011;59128;44.642;21.188;2024-03-29T19:51:48;10.05;;;5.45;;
60665;SDS011;59128;44.642;21.188;2024-03-29T19:54:16;11.32;;;6.03;;
60665;SDS011;59128;44.642;21.188;2024-03-29T19:56:43;11.48;;;6.60;;
60665;SDS011;59128;44.642;21.188;2024-03-29T19:59:09;7.22;;;4.90;;
60665;SDS011;59128;44.642;21.188;2024-03-29T20:01:35;12.70;;;7.22;;
60665;SDS011;59128;44.642;21.188;2024-03-29T20:04:01;11.63;;;6.23;;
60665;SDS011;59128;44.642;21.188;2024-03-29T20:06:27;10.90;;;6.53;;
60665;SDS011;59128;44.642;21.188;2024-03-29T20:08:53;9.57;;;4.88;;
60665;SDS011;59128;44.642;21.188;2024-03-29T20:11:20;8.15;;;4.18;;
60665;SDS011;59128;44.642;21.188;2024-03-29T20:13:46;14.45;;;10.25;;
60665;SDS011;59128;44.642;21.188;2024-03-29T20:16:12;15.53;;;9.33;;
60665;SDS011;59128;44.642;21.188;2024-03-29T20:18:38;14.50;;;9.50;;
60665;SDS011;59128;44.642;21.188;2024-03-29T20:21:04;19.30;;;12.37;;
60665;SDS011;59128;44.642;21.188;2024-03-29T20:23:30;22.88;;;15.75;;
60665;SDS011;59128;44.642;21.188;2024-03-29T20:25:57;25.77;;;13.70;;
60665;SDS011;59128;44.642;21.188;2024-03-29T20:28:23;17.30;;;10.57;;
60665;SDS011;59128;44.642;21.188;2024-03-29T20:30:50;16.65;;;10.32;;
60665;SDS011;59128;44.642;21.188;2024-03-29T20:33:17;14.97;;;9.77;;
60665;SDS011;59128;44.642;21.188;2024-03-29T20:35:46;15.70;;;8.80;;
60665;SDS011;59128;44.642;21.188;2024-03-29T20:38:12;12.93;;;8.43;;
60665;SDS011;59128;44.642;21.188;2024-03-29T20:40:38;12.65;;;7.40;;
60665;SDS011;59128;44.642;21.188;2024-03-29T20:43:06;14.63;;;9.37;;
60665;SDS011;59128;44.642;21.188;2024-03-29T20:45:32;13.40;;;8.98;;
60665;SDS011;59128;44.642;21.188;2024-03-29T20:47:58;10.70;;;6.05;;
60665;SDS011;59128;44.642;21.188;2024-03-29T20:50:28;15.55;;;11.38;;
60665;SDS011;59128;44.642;21.188;2024-03-29T20:52:57;22.17;;;16.65;;
60665;SDS011;59128;44.642;21.188;2024-03-29T20:55:23;30.42;;;20.25;;
60665;SDS011;59128;44.642;21.188;2024-03-29T20:57:50;52.15;;;33.80;;
60665;SDS011;59128;44.642;21.188;2024-03-29T21:00:18;33.53;;;20.50;;
60665;SDS011;59128;44.642;21.188;2024-03-29T21:02:45;73.45;;;46.92;;
60665;SDS011;59128;44.642;21.188;2024-03-29T21:05:29;70.45;;;43.40;;
60665;SDS011;59128;44.642;21.188;2024-03-29T21:08:00;54.67;;;38.53;;
60665;SDS011;59128;44.642;21.188;2024-03-29T21:10:27;30.73;;;22.80;;
60665;SDS011;59128;44.642;21.188;2024-03-29T21:12:54;19.43;;;13.20;;
60665;SDS011;59128;44.642;21.188;2024-03-29T21:15:23;16.23;;;10.10;;
60665;SDS011;59128;44.642;21.188;2024-03-29T21:17:49;13.70;;;8.88;;
60665;SDS011;59128;44.642;21.188;2024-03-29T21:20:16;16.55;;;10.30;;
60665;SDS011;59128;44.642;21.188;2024-03-29T21:22:42;19.38;;;13.45;;
60665;SDS011;59128;44.642;21.188;2024-03-29T21:25:10;18.63;;;13.10;;
60665;SDS011;59128;44.642;21.188;2024-03-29T21:27:36;152.93;;;80.72;;
60665;SDS011;59128;44.642;21.188;2024-03-29T21:30:03;76.00;;;44.85;;
60665;SDS011;59128;44.642;21.188;2024-03-29T21:32:30;103.75;;;53.85;;
60665;SDS011;59128;44.642;21.188;2024-03-29T21:34:56;111.45;;;58.38;;
60665;SDS011;59128;44.642;21.188;2024-03-29T21:37:22;72.68;;;37.85;;
60665;SDS011;59128;44.642;21.188;2024-03-29T21:39:48;79.30;;;43.33;;
60665;SDS011;59128;44.642;21.188;2024-03-29T21:42:14;81.97;;;47.33;;